sensor_id;sensor_type;location;lat;lon;timestamp;temperature;humidity
70830;SHT30;58451;51.550;7.208;2023-12-14T00:01:01;7.71;86.37
70830;SHT30;58451;51.550;7.208;2023-12-14T00:02:33;7.68;86.30
70830;SHT30;58451;51.550;7.208;2023-12-14T00:04:05;7.68;86.42
70830;SHT30;58451;51.550;7.208;2023-12-14T00:05:37;7.65;86.33
70830;SHT30;58451;51.550;7.208;2023-12-14T00:07:11;7.63;86.30
70830;SHT30;58451;51.550;7.208;2023-12-14T00:08:46;7.62;86.30
70830;SHT30;58451;51.550;7.208;2023-12-14T00:10:18;7.61;86.30
70830;SHT30;58451;51.550;7.208;2023-12-14T00:11:50;7.61;86.32
70830;SHT30;58451;51.550;7.208;2023-12-14T00:13:22;7.62;86.35
70830;SHT30;58451;51.550;7.208;2023-12-14T00:14:54;7.60;86.30
70830;SHT30;58451;51.550;7.208;2023-12-14T00:16:26;7.61;86.30
70830;SHT30;58451;51.550;7.208;2023-12-14T00:17:58;7.61;86.33
70830;SHT30;58451;51.550;7.208;2023-12-14T00:19:30;7.61;86.33
70830;SHT30;58451;51.550;7.208;2023-12-14T00:21:02;7.61;86.33
70830;SHT30;58451;51.550;7.208;2023-12-14T00:22:35;7.60;86.32
70830;SHT30;58451;51.550;7.208;2023-12-14T00:24:08;7.59;86.28
70830;SHT30;58451;51.550;7.208;2023-12-14T00:25:40;7.59;86.25
70830;SHT30;58451;51.550;7.208;2023-12-14T00:27:12;7.58;86.23
70830;SHT30;58451;51.550;7.208;2023-12-14T00:28:43;7.57;86.20
70830;SHT30;58451;51.550;7.208;2023-12-14T00:30:15;7.57;86.23
70830;SHT30;58451;51.550;7.208;2023-12-14T00:31:48;7.57;86.22
70830;SHT30;58451;51.550;7.208;2023-12-14T00:33:20;7.54;86.03
70830;SHT30;58451;51.550;7.208;2023-12-14T00:34:52;7.53;86.02
70830;SHT30;58451;51.550;7.208;2023-12-14T00:36:24;7.49;86.05
70830;SHT30;58451;51.550;7.208;2023-12-14T00:37:56;7.48;86.07
70830;SHT30;58451;51.550;7.208;2023-12-14T00:39:28;7.46;86.00
70830;SHT30;58451;51.550;7.208;2023-12-14T00:40:59;7.43;86.00
70830;SHT30;58451;51.550;7.208;2023-12-14T00:42:32;7.41;86.00
70830;SHT30;58451;51.550;7.208;2023-12-14T00:44:04;7.39;85.98
70830;SHT30;58451;51.550;7.208;2023-12-14T00:45:36;7.37;86.10
70830;SHT30;58451;51.550;7.208;2023-12-14T00:47:08;7.41;86.35
70830;SHT30;58451;51.550;7.208;2023-12-14T00:48:40;7.43;86.65
70830;SHT30;58451;51.550;7.208;2023-12-14T00:50:12;7.45;86.72
70830;SHT30;58451;51.550;7.208;2023-12-14T00:51:44;7.48;86.78
70830;SHT30;58451;51.550;7.208;2023-12-14T00:53:16;7.51;87.18
70830;SHT30;58451;51.550;7.208;2023-12-14T00:54:48;7.52;87.42
70830;SHT30;58451;51.550;7.208;2023-12-14T00:56:20;7.53;87.45
70830;SHT30;58451;51.550;7.208;2023-12-14T00:57:52;7.53;87.57
70830;SHT30;58451;51.550;7.208;2023-12-14T00:59:24;7.55;87.85
70830;SHT30;58451;51.550;7.208;2023-12-14T01:00:56;7.59;88.05
70830;SHT30;58451;51.550;7.208;2023-12-14T01:02:28;7.61;88.25
70830;SHT30;58451;51.550;7.208;2023-12-14T01:04:00;7.63;88.55
70830;SHT30;58451;51.550;7.208;2023-12-14T01:05:33;7.63;88.48
70830;SHT30;58451;51.550;7.208;2023-12-14T01:07:05;7.64;88.60
70830;SHT30;58451;51.550;7.208;2023-12-14T01:08:37;7.66;88.77
70830;SHT30;58451;51.550;7.208;2023-12-14T01:10:09;7.67;88.80
70830;SHT30;58451;51.550;7.208;2023-12-14T01:11:42;7.67;88.70
70830;SHT30;58451;51.550;7.208;2023-12-14T01:13:14;7.66;88.75
70830;SHT30;58451;51.550;7.208;2023-12-14T01:14:46;7.68;88.83
70830;SHT30;58451;51.550;7.208;2023-12-14T01:16:18;7.67;88.85
70830;SHT30;58451;51.550;7.208;2023-12-14T01:17:49;7.67;89.02
70830;SHT30;58451;51.550;7.208;2023-12-14T01:19:21;7.68;89.08
70830;SHT30;58451;51.550;7.208;2023-12-14T01:20:53;7.68;89.18
70830;SHT30;58451;51.550;7.208;2023-12-14T01:22:25;7.69;89.20
70830;SHT30;58451;51.550;7.208;2023-12-14T01:23:57;7.70;89.12
70830;SHT30;58451;51.550;7.208;2023-12-14T01:25:29;7.70;89.03
70830;SHT30;58451;51.550;7.208;2023-12-14T01:27:01;7.68;89.02
70830;SHT30;58451;51.550;7.208;2023-12-14T01:28:33;7.68;89.03
70830;SHT30;58451;51.550;7.208;2023-12-14T01:30:05;7.69;89.25
70830;SHT30;58451;51.550;7.208;2023-12-14T01:31:39;7.68;89.20
70830;SHT30;58451;51.550;7.208;2023-12-14T01:33:11;7.68;89.28
70830;SHT30;58451;51.550;7.208;2023-12-14T01:34:43;7.69;89.43
70830;SHT30;58451;51.550;7.208;2023-12-14T01:36:21;7.68;89.45
70830;SHT30;58451;51.550;7.208;2023-12-14T01:37:54;7.67;89.40
70830;SHT30;58451;51.550;7.208;2023-12-14T01:39:26;7.67;89.43
70830;SHT30;58451;51.550;7.208;2023-12-14T01:40:58;7.67;89.43
70830;SHT30;58451;51.550;7.208;2023-12-14T01:42:31;7.64;89.50
70830;SHT30;58451;51.550;7.208;2023-12-14T01:44:03;7.64;89.62
70830;SHT30;58451;51.550;7.208;2023-12-14T01:45:35;7.63;89.72
70830;SHT30;58451;51.550;7.208;2023-12-14T01:47:08;7.62;89.77
70830;SHT30;58451;51.550;7.208;2023-12-14T01:48:41;7.61;89.52
70830;SHT30;58451;51.550;7.208;2023-12-14T01:50:13;7.61;89.52
70830;SHT30;58451;51.550;7.208;2023-12-14T01:51:45;7.61;89.65
70830;SHT30;58451;51.550;7.208;2023-12-14T01:53:17;7.61;89.68
70830;SHT30;58451;51.550;7.208;2023-12-14T01:54:50;7.60;89.63
70830;SHT30;58451;51.550;7.208;2023-12-14T01:56:22;7.59;89.67
70830;SHT30;58451;51.550;7.208;2023-12-14T01:57:54;7.59;89.70
70830;SHT30;58451;51.550;7.208;2023-12-14T01:59:25;7.59;89.77
70830;SHT30;58451;51.550;7.208;2023-12-14T02:02:48;7.57;89.62
70830;SHT30;58451;51.550;7.208;2023-12-14T02:04:20;7.58;89.70
70830;SHT30;58451;51.550;7.208;2023-12-14T02:05:52;7.55;89.62
70830;SHT30;58451;51.550;7.208;2023-12-14T02:07:24;7.51;89.62
70830;SHT30;58451;51.550;7.208;2023-12-14T02:09:00;7.50;89.62
70830;SHT30;58451;51.550;7.208;2023-12-14T02:10:35;7.51;89.75
70830;SHT30;58451;51.550;7.208;2023-12-14T02:12:07;7.50;89.62
70830;SHT30;58451;51.550;7.208;2023-12-14T02:13:39;7.49;89.67
70830;SHT30;58451;51.550;7.208;2023-12-14T02:15:11;7.49;89.73
70830;SHT30;58451;51.550;7.208;2023-12-14T02:16:43;7.49;89.75
70830;SHT30;58451;51.550;7.208;2023-12-14T02:18:15;7.52;89.80
70830;SHT30;58451;51.550;7.208;2023-12-14T02:19:47;7.51;89.57
70830;SHT30;58451;51.550;7.208;2023-12-14T02:21:23;7.46;89.00
70830;SHT30;58451;51.550;7.208;2023-12-14T02:22:55;7.43;89.32
70830;SHT30;58451;51.550;7.208;2023-12-14T02:24:28;7.39;89.35
70830;SHT30;58451;51.550;7.208;2023-12-14T02:26:00;7.39;89.45
70830;SHT30;58451;51.550;7.208;2023-12-14T02:27:32;7.39;89.50
70830;SHT30;58451;51.550;7.208;2023-12-14T02:29:04;7.40;89.47
70830;SHT30;58451;51.550;7.208;2023-12-14T02:30:36;7.38;89.43
70830;SHT30;58451;51.550;7.208;2023-12-14T02:32:08;7.37;89.45
70830;SHT30;58451;51.550;7.208;2023-12-14T02:33:40;7.34;89.60
70830;SHT30;58451;51.550;7.208;2023-12-14T02:35:11;7.33;89.57
70830;SHT30;58451;51.550;7.208;2023-12-14T02:36:43;7.32;89.47
70830;SHT30;58451;51.550;7.208;2023-12-14T02:38:15;7.29;89.42
70830;SHT30;58451;51.550;7.208;2023-12-14T02:39:47;7.30;89.38
70830;SHT30;58451;51.550;7.208;2023-12-14T02:41:19;7.28;89.35
70830;SHT30;58451;51.550;7.208;2023-12-14T02:42:51;7.26;89.45
70830;SHT30;58451;51.550;7.208;2023-12-14T02:44:22;7.27;89.62
70830;SHT30;58451;51.550;7.208;2023-12-14T02:45:54;7.25;89.38
70830;SHT30;58451;51.550;7.208;2023-12-14T02:47:32;7.21;89.30
70830;SHT30;58451;51.550;7.208;2023-12-14T02:49:04;7.21;89.47
70830;SHT30;58451;51.550;7.208;2023-12-14T02:50:36;7.20;89.57
70830;SHT30;58451;51.550;7.208;2023-12-14T02:52:08;7.18;89.50
70830;SHT30;58451;51.550;7.208;2023-12-14T02:53:40;7.19;89.57
70830;SHT30;58451;51.550;7.208;2023-12-14T02:55:13;7.18;89.57
70830;SHT30;58451;51.550;7.208;2023-12-14T02:56:45;7.18;89.60
70830;SHT30;58451;51.550;7.208;2023-12-14T02:58:18;7.18;89.63
70830;SHT30;58451;51.550;7.208;2023-12-14T02:59:50;7.17;89.73
70830;SHT30;58451;51.550;7.208;2023-12-14T03:01:22;7.16;89.73
70830;SHT30;58451;51.550;7.208;2023-12-14T03:02:54;7.17;89.72
70830;SHT30;58451;51.550;7.208;2023-12-14T03:04:26;7.16;89.67
70830;SHT30;58451;51.550;7.208;2023-12-14T03:06:00;7.13;89.67
70830;SHT30;58451;51.550;7.208;2023-12-14T03:07:32;7.15;89.72
70830;SHT30;58451;51.550;7.208;2023-12-14T03:09:04;7.18;89.80
70830;SHT30;58451;51.550;7.208;2023-12-14T03:10:36;7.17;89.77
70830;SHT30;58451;51.550;7.208;2023-12-14T03:12:08;7.19;89.80
70830;SHT30;58451;51.550;7.208;2023-12-14T03:13:40;7.20;89.82
70830;SHT30;58451;51.550;7.208;2023-12-14T03:15:11;7.20;89.83
70830;SHT30;58451;51.550;7.208;2023-12-14T03:16:43;7.18;89.77
70830;SHT30;58451;51.550;7.208;2023-12-14T03:18:15;7.13;89.70
70830;SHT30;58451;51.550;7.208;2023-12-14T03:19:47;7.11;89.33
70830;SHT30;58451;51.550;7.208;2023-12-14T03:21:19;7.09;89.50
70830;SHT30;58451;51.550;7.208;2023-12-14T03:22:52;7.07;89.62
70830;SHT30;58451;51.550;7.208;2023-12-14T03:24:24;7.08;89.78
70830;SHT30;58451;51.550;7.208;2023-12-14T03:25:55;7.08;89.80
70830;SHT30;58451;51.550;7.208;2023-12-14T03:27:27;7.08;89.77
70830;SHT30;58451;51.550;7.208;2023-12-14T03:28:59;7.06;89.45
70830;SHT30;58451;51.550;7.208;2023-12-14T03:30:31;7.04;89.52
70830;SHT30;58451;51.550;7.208;2023-12-14T03:32:03;7.01;89.47
70830;SHT30;58451;51.550;7.208;2023-12-14T03:33:35;7.01;89.60
70830;SHT30;58451;51.550;7.208;2023-12-14T03:35:08;7.03;89.72
70830;SHT30;58451;51.550;7.208;2023-12-14T03:36:40;7.03;89.80
70830;SHT30;58451;51.550;7.208;2023-12-14T03:38:14;7.02;89.75
70830;SHT30;58451;51.550;7.208;2023-12-14T03:39:46;7.00;89.67
70830;SHT30;58451;51.550;7.208;2023-12-14T03:41:18;6.97;89.60
70830;SHT30;58451;51.550;7.208;2023-12-14T03:42:50;6.97;89.43
70830;SHT30;58451;51.550;7.208;2023-12-14T03:44:22;6.94;89.22
70830;SHT30;58451;51.550;7.208;2023-12-14T03:45:55;6.91;89.33
70830;SHT30;58451;51.550;7.208;2023-12-14T03:47:27;6.89;89.33
70830;SHT30;58451;51.550;7.208;2023-12-14T03:48:59;6.86;89.38
70830;SHT30;58451;51.550;7.208;2023-12-14T03:50:31;6.80;88.97
70830;SHT30;58451;51.550;7.208;2023-12-14T03:52:04;6.80;89.37
70830;SHT30;58451;51.550;7.208;2023-12-14T03:53:36;6.81;89.47
70830;SHT30;58451;51.550;7.208;2023-12-14T03:55:08;6.80;89.40
70830;SHT30;58451;51.550;7.208;2023-12-14T03:56:41;6.79;89.42
70830;SHT30;58451;51.550;7.208;2023-12-14T03:58:12;6.81;89.52
70830;SHT30;58451;51.550;7.208;2023-12-14T03:59:44;6.79;89.53
70830;SHT30;58451;51.550;7.208;2023-12-14T04:01:19;6.78;89.50
70830;SHT30;58451;51.550;7.208;2023-12-14T04:02:52;6.78;89.58
70830;SHT30;58451;51.550;7.208;2023-12-14T04:04:24;6.78;89.50
70830;SHT30;58451;51.550;7.208;2023-12-14T04:05:56;6.77;89.65
70830;SHT30;58451;51.550;7.208;2023-12-14T04:07:28;6.78;89.70
70830;SHT30;58451;51.550;7.208;2023-12-14T04:09:00;6.76;89.48
70830;SHT30;58451;51.550;7.208;2023-12-14T04:10:32;6.73;89.38
70830;SHT30;58451;51.550;7.208;2023-12-14T04:12:04;6.71;89.48
70830;SHT30;58451;51.550;7.208;2023-12-14T04:13:38;6.70;89.52
70830;SHT30;58451;51.550;7.208;2023-12-14T04:15:15;6.70;89.58
70830;SHT30;58451;51.550;7.208;2023-12-14T04:16:50;6.70;89.60
70830;SHT30;58451;51.550;7.208;2023-12-14T04:18:30;6.71;89.68
70830;SHT30;58451;51.550;7.208;2023-12-14T04:20:02;6.70;89.68
70830;SHT30;58451;51.550;7.208;2023-12-14T04:21:37;6.70;89.70
70830;SHT30;58451;51.550;7.208;2023-12-14T04:23:09;6.71;89.72
70830;SHT30;58451;51.550;7.208;2023-12-14T04:24:41;6.70;89.70
70830;SHT30;58451;51.550;7.208;2023-12-14T04:26:13;6.71;89.70
70830;SHT30;58451;51.550;7.208;2023-12-14T04:27:45;6.73;89.70
70830;SHT30;58451;51.550;7.208;2023-12-14T04:29:17;6.74;89.73
70830;SHT30;58451;51.550;7.208;2023-12-14T04:30:49;6.76;89.70
70830;SHT30;58451;51.550;7.208;2023-12-14T04:32:21;6.78;89.70
70830;SHT30;58451;51.550;7.208;2023-12-14T04:33:53;6.80;89.72
70830;SHT30;58451;51.550;7.208;2023-12-14T04:35:25;6.77;89.67
70830;SHT30;58451;51.550;7.208;2023-12-14T04:36:56;6.77;89.60
70830;SHT30;58451;51.550;7.208;2023-12-14T04:38:29;6.75;89.45
70830;SHT30;58451;51.550;7.208;2023-12-14T04:40:01;6.71;89.45
70830;SHT30;58451;51.550;7.208;2023-12-14T04:41:32;6.69;89.48
70830;SHT30;58451;51.550;7.208;2023-12-14T04:43:04;6.67;89.55
70830;SHT30;58451;51.550;7.208;2023-12-14T04:44:36;6.66;89.53
70830;SHT30;58451;51.550;7.208;2023-12-14T04:46:09;6.64;89.48
70830;SHT30;58451;51.550;7.208;2023-12-14T04:47:41;6.64;89.60
70830;SHT30;58451;51.550;7.208;2023-12-14T04:49:13;6.63;89.63
70830;SHT30;58451;51.550;7.208;2023-12-14T04:50:46;6.62;89.48
70830;SHT30;58451;51.550;7.208;2023-12-14T04:52:17;6.59;89.48
70830;SHT30;58451;51.550;7.208;2023-12-14T04:53:49;6.60;89.60
70830;SHT30;58451;51.550;7.208;2023-12-14T04:55:21;6.59;89.53
70830;SHT30;58451;51.550;7.208;2023-12-14T04:56:53;6.60;89.58
70830;SHT30;58451;51.550;7.208;2023-12-14T04:58:25;6.59;89.57
70830;SHT30;58451;51.550;7.208;2023-12-14T04:59:57;6.59;89.60
70830;SHT30;58451;51.550;7.208;2023-12-14T05:01:29;6.59;89.58
70830;SHT30;58451;51.550;7.208;2023-12-14T05:03:04;6.59;89.50
70830;SHT30;58451;51.550;7.208;2023-12-14T05:04:38;6.62;89.55
70830;SHT30;58451;51.550;7.208;2023-12-14T05:06:10;6.63;89.58
70830;SHT30;58451;51.550;7.208;2023-12-14T05:07:42;6.64;89.57
70830;SHT30;58451;51.550;7.208;2023-12-14T05:09:14;6.64;89.57
70830;SHT30;58451;51.550;7.208;2023-12-14T05:10:46;6.61;89.57
70830;SHT30;58451;51.550;7.208;2023-12-14T05:12:18;6.61;89.55
70830;SHT30;58451;51.550;7.208;2023-12-14T05:13:49;6.63;89.63
70830;SHT30;58451;51.550;7.208;2023-12-14T05:15:21;6.62;89.62
70830;SHT30;58451;51.550;7.208;2023-12-14T05:16:53;6.64;89.60
70830;SHT30;58451;51.550;7.208;2023-12-14T05:18:25;6.62;89.58
70830;SHT30;58451;51.550;7.208;2023-12-14T05:19:57;6.61;89.53
70830;SHT30;58451;51.550;7.208;2023-12-14T05:21:30;6.59;89.47
70830;SHT30;58451;51.550;7.208;2023-12-14T05:23:01;6.61;89.53
70830;SHT30;58451;51.550;7.208;2023-12-14T05:24:34;6.61;89.58
70830;SHT30;58451;51.550;7.208;2023-12-14T05:26:06;6.62;89.52
70830;SHT30;58451;51.550;7.208;2023-12-14T05:27:38;6.61;89.53
70830;SHT30;58451;51.550;7.208;2023-12-14T05:29:09;6.61;89.50
70830;SHT30;58451;51.550;7.208;2023-12-14T05:30:41;6.65;89.60
70830;SHT30;58451;51.550;7.208;2023-12-14T05:32:14;6.66;89.60
70830;SHT30;58451;51.550;7.208;2023-12-14T05:33:46;6.67;89.60
70830;SHT30;58451;51.550;7.208;2023-12-14T05:35:18;6.70;89.60
70830;SHT30;58451;51.550;7.208;2023-12-14T05:36:50;6.70;89.48
70830;SHT30;58451;51.550;7.208;2023-12-14T05:38:22;6.67;89.53
70830;SHT30;58451;51.550;7.208;2023-12-14T05:39:54;6.66;89.48
70830;SHT30;58451;51.550;7.208;2023-12-14T05:41:25;6.63;89.43
70830;SHT30;58451;51.550;7.208;2023-12-14T05:42:57;6.62;89.40
70830;SHT30;58451;51.550;7.208;2023-12-14T05:44:29;6.62;89.38
70830;SHT30;58451;51.550;7.208;2023-12-14T05:46:02;6.63;89.50
70830;SHT30;58451;51.550;7.208;2023-12-14T05:47:35;6.64;89.53
70830;SHT30;58451;51.550;7.208;2023-12-14T05:49:07;6.66;89.53
70830;SHT30;58451;51.550;7.208;2023-12-14T05:50:39;6.67;89.57
70830;SHT30;58451;51.550;7.208;2023-12-14T05:52:11;6.65;89.55
70830;SHT30;58451;51.550;7.208;2023-12-14T05:53:43;6.63;89.52
70830;SHT30;58451;51.550;7.208;2023-12-14T05:55:15;6.61;89.42
70830;SHT30;58451;51.550;7.208;2023-12-14T05:56:50;6.59;89.42
70830;SHT30;58451;51.550;7.208;2023-12-14T05:58:21;6.56;89.38
70830;SHT30;58451;51.550;7.208;2023-12-14T05:59:53;6.56;89.40
70830;SHT30;58451;51.550;7.208;2023-12-14T06:01:25;6.54;89.45
70830;SHT30;58451;51.550;7.208;2023-12-14T06:02:57;6.54;89.38
70830;SHT30;58451;51.550;7.208;2023-12-14T06:04:29;6.50;89.33
70830;SHT30;58451;51.550;7.208;2023-12-14T06:06:01;6.48;89.27
70830;SHT30;58451;51.550;7.208;2023-12-14T06:07:33;6.47;89.37
70830;SHT30;58451;51.550;7.208;2023-12-14T06:09:05;6.46;89.38
70830;SHT30;58451;51.550;7.208;2023-12-14T06:10:38;6.44;89.35
70830;SHT30;58451;51.550;7.208;2023-12-14T06:12:10;6.43;89.42
70830;SHT30;58451;51.550;7.208;2023-12-14T06:13:42;6.43;89.40
70830;SHT30;58451;51.550;7.208;2023-12-14T06:15:14;6.42;89.33
70830;SHT30;58451;51.550;7.208;2023-12-14T06:16:46;6.40;89.40
70830;SHT30;58451;51.550;7.208;2023-12-14T06:18:18;6.39;89.32
70830;SHT30;58451;51.550;7.208;2023-12-14T06:19:51;6.36;89.32
70830;SHT30;58451;51.550;7.208;2023-12-14T06:21:23;6.34;89.20
70830;SHT30;58451;51.550;7.208;2023-12-14T06:22:59;6.34;89.12
70830;SHT30;58451;51.550;7.208;2023-12-14T06:24:31;6.33;89.25
70830;SHT30;58451;51.550;7.208;2023-12-14T06:26:05;6.34;89.28
70830;SHT30;58451;51.550;7.208;2023-12-14T06:27:37;6.35;89.30
70830;SHT30;58451;51.550;7.208;2023-12-14T06:29:09;6.36;89.35
70830;SHT30;58451;51.550;7.208;2023-12-14T06:30:42;6.38;89.47
70830;SHT30;58451;51.550;7.208;2023-12-14T06:32:16;6.40;89.43
70830;SHT30;58451;51.550;7.208;2023-12-14T06:33:48;6.41;89.53
70830;SHT30;58451;51.550;7.208;2023-12-14T06:35:20;6.42;89.53
70830;SHT30;58451;51.550;7.208;2023-12-14T06:36:53;6.42;89.53
70830;SHT30;58451;51.550;7.208;2023-12-14T06:38:24;6.42;89.45
70830;SHT30;58451;51.550;7.208;2023-12-14T06:39:56;6.42;89.45
70830;SHT30;58451;51.550;7.208;2023-12-14T06:41:28;6.41;89.48
70830;SHT30;58451;51.550;7.208;2023-12-14T06:43:00;6.42;89.42
70830;SHT30;58451;51.550;7.208;2023-12-14T06:44:36;6.39;89.12
70830;SHT30;58451;51.550;7.208;2023-12-14T06:46:08;6.36;89.17
70830;SHT30;58451;51.550;7.208;2023-12-14T06:47:40;6.36;88.88
70830;SHT30;58451;51.550;7.208;2023-12-14T06:49:14;6.33;88.92
70830;SHT30;58451;51.550;7.208;2023-12-14T06:50:46;6.34;89.13
70830;SHT30;58451;51.550;7.208;2023-12-14T06:52:19;6.34;89.17
70830;SHT30;58451;51.550;7.208;2023-12-14T06:53:51;6.33;89.20
70830;SHT30;58451;51.550;7.208;2023-12-14T06:55:23;6.35;89.27
70830;SHT30;58451;51.550;7.208;2023-12-14T06:56:55;6.34;89.27
70830;SHT30;58451;51.550;7.208;2023-12-14T06:58:27;6.34;88.90
70830;SHT30;58451;51.550;7.208;2023-12-14T06:59:59;6.32;89.03
70830;SHT30;58451;51.550;7.208;2023-12-14T07:01:31;6.30;89.02
70830;SHT30;58451;51.550;7.208;2023-12-14T07:03:02;6.31;88.98
70830;SHT30;58451;51.550;7.208;2023-12-14T07:04:34;6.30;88.83
70830;SHT30;58451;51.550;7.208;2023-12-14T07:06:06;6.27;88.40
70830;SHT30;58451;51.550;7.208;2023-12-14T07:07:40;6.24;88.35
70830;SHT30;58451;51.550;7.208;2023-12-14T07:09:12;6.21;88.53
70830;SHT30;58451;51.550;7.208;2023-12-14T07:10:44;6.19;88.53
70830;SHT30;58451;51.550;7.208;2023-12-14T07:12:16;6.20;88.72
70830;SHT30;58451;51.550;7.208;2023-12-14T07:13:49;6.21;88.82
70830;SHT30;58451;51.550;7.208;2023-12-14T07:15:21;6.22;88.88
70830;SHT30;58451;51.550;7.208;2023-12-14T07:16:53;6.24;89.05
70830;SHT30;58451;51.550;7.208;2023-12-14T07:18:25;6.23;88.85
70830;SHT30;58451;51.550;7.208;2023-12-14T07:19:57;6.24;88.80
70830;SHT30;58451;51.550;7.208;2023-12-14T07:21:31;6.22;88.97
70830;SHT30;58451;51.550;7.208;2023-12-14T07:23:05;6.24;89.02
70830;SHT30;58451;51.550;7.208;2023-12-14T07:24:37;6.26;89.07
70830;SHT30;58451;51.550;7.208;2023-12-14T07:26:22;6.26;89.08
70830;SHT30;58451;51.550;7.208;2023-12-14T07:27:55;6.25;89.02
70830;SHT30;58451;51.550;7.208;2023-12-14T07:29:26;6.23;88.87
70830;SHT30;58451;51.550;7.208;2023-12-14T07:30:58;6.23;88.90
70830;SHT30;58451;51.550;7.208;2023-12-14T07:32:30;6.24;88.80
70830;SHT30;58451;51.550;7.208;2023-12-14T07:34:02;6.23;88.78
70830;SHT30;58451;51.550;7.208;2023-12-14T07:35:34;6.24;88.88
70830;SHT30;58451;51.550;7.208;2023-12-14T07:37:06;6.24;88.78
70830;SHT30;58451;51.550;7.208;2023-12-14T07:38:38;6.26;88.72
70830;SHT30;58451;51.550;7.208;2023-12-14T07:40:10;6.25;88.57
70830;SHT30;58451;51.550;7.208;2023-12-14T07:41:42;6.24;88.75
70830;SHT30;58451;51.550;7.208;2023-12-14T07:43:14;6.25;88.72
70830;SHT30;58451;51.550;7.208;2023-12-14T07:44:46;6.29;88.77
70830;SHT30;58451;51.550;7.208;2023-12-14T07:46:18;6.29;88.72
70830;SHT30;58451;51.550;7.208;2023-12-14T07:47:50;6.27;88.28
70830;SHT30;58451;51.550;7.208;2023-12-14T07:49:22;6.24;88.43
70830;SHT30;58451;51.550;7.208;2023-12-14T07:50:54;6.24;88.70
70830;SHT30;58451;51.550;7.208;2023-12-14T07:52:26;6.26;88.80
70830;SHT30;58451;51.550;7.208;2023-12-14T07:53:58;6.27;88.78
70830;SHT30;58451;51.550;7.208;2023-12-14T07:55:30;6.30;88.80
70830;SHT30;58451;51.550;7.208;2023-12-14T07:57:03;6.33;88.92
70830;SHT30;58451;51.550;7.208;2023-12-14T07:58:35;6.34;88.92
70830;SHT30;58451;51.550;7.208;2023-12-14T08:00:07;6.34;88.98
70830;SHT30;58451;51.550;7.208;2023-12-14T08:01:40;6.35;88.95
70830;SHT30;58451;51.550;7.208;2023-12-14T08:03:13;6.36;89.00
70830;SHT30;58451;51.550;7.208;2023-12-14T08:04:45;6.38;89.00
70830;SHT30;58451;51.550;7.208;2023-12-14T08:06:28;6.38;88.93
70830;SHT30;58451;51.550;7.208;2023-12-14T08:08:00;6.39;88.95
70830;SHT30;58451;51.550;7.208;2023-12-14T08:09:32;6.41;88.95
70830;SHT30;58451;51.550;7.208;2023-12-14T08:11:04;6.46;89.00
70830;SHT30;58451;51.550;7.208;2023-12-14T08:12:37;6.49;89.02
70830;SHT30;58451;51.550;7.208;2023-12-14T08:14:09;6.50;89.10
70830;SHT30;58451;51.550;7.208;2023-12-14T08:15:42;6.49;89.07
70830;SHT30;58451;51.550;7.208;2023-12-14T08:17:14;6.49;89.03
70830;SHT30;58451;51.550;7.208;2023-12-14T08:18:46;6.52;89.10
70830;SHT30;58451;51.550;7.208;2023-12-14T08:20:19;6.54;89.13
70830;SHT30;58451;51.550;7.208;2023-12-14T08:21:52;6.55;89.08
70830;SHT30;58451;51.550;7.208;2023-12-14T08:23:24;6.58;89.13
70830;SHT30;58451;51.550;7.208;2023-12-14T08:24:59;6.57;89.17
70830;SHT30;58451;51.550;7.208;2023-12-14T08:26:31;6.56;89.10
70830;SHT30;58451;51.550;7.208;2023-12-14T08:28:03;6.56;89.07
70830;SHT30;58451;51.550;7.208;2023-12-14T08:29:36;6.54;88.92
70830;SHT30;58451;51.550;7.208;2023-12-14T08:31:08;6.52;88.80
70830;SHT30;58451;51.550;7.208;2023-12-14T08:32:42;6.54;88.90
70830;SHT30;58451;51.550;7.208;2023-12-14T08:34:15;6.51;88.83
70830;SHT30;58451;51.550;7.208;2023-12-14T08:35:47;6.48;88.67
70830;SHT30;58451;51.550;7.208;2023-12-14T08:37:18;6.47;88.75
70830;SHT30;58451;51.550;7.208;2023-12-14T08:38:50;6.45;88.72
70830;SHT30;58451;51.550;7.208;2023-12-14T08:40:22;6.48;88.80
70830;SHT30;58451;51.550;7.208;2023-12-14T08:41:55;6.47;88.85
70830;SHT30;58451;51.550;7.208;2023-12-14T08:43:27;6.48;88.88
70830;SHT30;58451;51.550;7.208;2023-12-14T08:44:59;6.50;88.95
70830;SHT30;58451;51.550;7.208;2023-12-14T08:46:38;6.50;88.97
70830;SHT30;58451;51.550;7.208;2023-12-14T08:48:14;6.51;88.92
70830;SHT30;58451;51.550;7.208;2023-12-14T08:49:46;6.53;88.95
70830;SHT30;58451;51.550;7.208;2023-12-14T08:51:18;6.55;88.97
70830;SHT30;58451;51.550;7.208;2023-12-14T08:52:52;6.58;88.97
70830;SHT30;58451;51.550;7.208;2023-12-14T08:54:26;6.62;88.97
70830;SHT30;58451;51.550;7.208;2023-12-14T08:55:58;6.64;88.97
70830;SHT30;58451;51.550;7.208;2023-12-14T08:57:30;6.65;89.07
70830;SHT30;58451;51.550;7.208;2023-12-14T08:59:02;6.66;89.10
70830;SHT30;58451;51.550;7.208;2023-12-14T09:00:35;6.66;89.10
70830;SHT30;58451;51.550;7.208;2023-12-14T09:02:07;6.66;89.10
70830;SHT30;58451;51.550;7.208;2023-12-14T09:03:39;6.64;89.03
70830;SHT30;58451;51.550;7.208;2023-12-14T09:05:12;6.62;88.60
70830;SHT30;58451;51.550;7.208;2023-12-14T09:06:47;6.56;88.50
70830;SHT30;58451;51.550;7.208;2023-12-14T09:08:19;6.57;88.63
70830;SHT30;58451;51.550;7.208;2023-12-14T09:09:51;6.54;88.05
70830;SHT30;58451;51.550;7.208;2023-12-14T09:11:23;6.55;88.43
70830;SHT30;58451;51.550;7.208;2023-12-14T09:12:55;6.55;88.55
70830;SHT30;58451;51.550;7.208;2023-12-14T09:14:27;6.54;88.62
70830;SHT30;58451;51.550;7.208;2023-12-14T09:16:00;6.51;88.60
70830;SHT30;58451;51.550;7.208;2023-12-14T09:17:32;6.52;88.63
70830;SHT30;58451;51.550;7.208;2023-12-14T09:19:08;6.51;88.62
70830;SHT30;58451;51.550;7.208;2023-12-14T09:20:40;6.51;88.70
70830;SHT30;58451;51.550;7.208;2023-12-14T09:22:14;6.53;88.73
70830;SHT30;58451;51.550;7.208;2023-12-14T09:23:46;6.53;88.70
70830;SHT30;58451;51.550;7.208;2023-12-14T09:25:18;6.55;88.53
70830;SHT30;58451;51.550;7.208;2023-12-14T09:26:50;6.56;88.57
70830;SHT30;58451;51.550;7.208;2023-12-14T09:28:22;6.58;88.72
70830;SHT30;58451;51.550;7.208;2023-12-14T09:29:55;6.62;88.73
70830;SHT30;58451;51.550;7.208;2023-12-14T09:31:27;6.65;88.80
70830;SHT30;58451;51.550;7.208;2023-12-14T09:33:00;6.66;88.83
70830;SHT30;58451;51.550;7.208;2023-12-14T09:34:32;6.68;88.87
70830;SHT30;58451;51.550;7.208;2023-12-14T09:36:04;6.69;88.88
70830;SHT30;58451;51.550;7.208;2023-12-14T09:37:36;6.72;88.88
70830;SHT30;58451;51.550;7.208;2023-12-14T09:39:09;6.73;88.77
70830;SHT30;58451;51.550;7.208;2023-12-14T09:40:43;6.72;88.58
70830;SHT30;58451;51.550;7.208;2023-12-14T09:42:18;6.74;88.70
70830;SHT30;58451;51.550;7.208;2023-12-14T09:43:53;6.75;88.67
70830;SHT30;58451;51.550;7.208;2023-12-14T09:45:27;6.76;88.57
70830;SHT30;58451;51.550;7.208;2023-12-14T09:47:01;6.74;88.28
70830;SHT30;58451;51.550;7.208;2023-12-14T09:48:34;6.74;88.40
70830;SHT30;58451;51.550;7.208;2023-12-14T09:50:29;6.77;88.50
70830;SHT30;58451;51.550;7.208;2023-12-14T09:52:09;6.82;88.62
70830;SHT30;58451;51.550;7.208;2023-12-14T09:53:42;6.84;88.65
70830;SHT30;58451;51.550;7.208;2023-12-14T09:55:15;6.85;88.57